GAF2RH ETNW-LPPD
Flight info
| Callsign | GAF2RH |
|---|---|
| Flight time | N/A |
| Altitude | 32000 |
| Route | VAXEV Z718 OSNAD L980 TENLI L602 FLEVO L980 IDRID M40 NILON L610 GILDA L620 GIBSO DCT TALIG DCT TULTA DCT GONAN DCT GONAN DCT 42N019W DCT BAVAS DCT BAVAS |
| Aircraft | A400/H-SDE2E3FGHIJ4J5M1RWXY/LB1D1 |
Departure
| Time | 2026-04-17 17:31 |
|---|---|
| Airport | Wunstorf Air Base (ETNW) |
Arrival
| Time | N/A |
|---|---|
| Airport | João Paulo II Airport (LPPD) |
| Time | Latitude | Longitude | Altitude | Speed | Heading |
|---|---|---|---|---|---|
| 2026-04-17 17:04 | 52.46023 | 9.42511 | 184 ft | 0 kts | 262° |
| 2026-04-17 17:27 | 52.46022 | 9.42499 | 188 ft | 3 kts | 262° |
| 2026-04-17 17:27 | 52.46005 | 9.42454 | 189 ft | 6 kts | 211° |
| 2026-04-17 17:27 | 52.45962 | 9.42455 | 188 ft | 7 kts | 173° |
| 2026-04-17 17:27 | 52.45920 | 9.42436 | 183 ft | 7 kts | 220° |
| 2026-04-17 17:28 | 52.45896 | 9.42353 | 186 ft | 10 kts | 248° |
| 2026-04-17 17:28 | 52.45888 | 9.42245 | 180 ft | 11 kts | 269° |
| 2026-04-17 17:28 | 52.45880 | 9.42115 | 189 ft | 13 kts | 262° |
| 2026-04-17 17:28 | 52.45868 | 9.41963 | 183 ft | 14 kts | 262° |
| 2026-04-17 17:29 | 52.45849 | 9.41797 | 185 ft | 16 kts | 258° |
| 2026-04-17 17:29 | 52.45818 | 9.41651 | 191 ft | 13 kts | 241° |
| 2026-04-17 17:29 | 52.45777 | 9.41531 | 202 ft | 11 kts | 241° |
| 2026-04-17 17:29 | 52.45738 | 9.41416 | 201 ft | 12 kts | 241° |
| 2026-04-17 17:30 | 52.45695 | 9.41305 | 201 ft | 12 kts | 225° |
| 2026-04-17 17:30 | 52.45620 | 9.41310 | 202 ft | 12 kts | 128° |
| 2026-04-17 17:30 | 52.45621 | 9.41470 | 195 ft | 27 kts | 82° |
| 2026-04-17 17:30 | 52.45691 | 9.42273 | 187 ft | 117 kts | 83° |
| 2026-04-17 17:31 | 52.45841 | 9.43936 | 392 ft | 165 kts | 83° |
| 2026-04-17 17:31 | 52.46120 | 9.45863 | 918 ft | 177 kts | 72° |
| 2026-04-17 17:31 | 52.46643 | 9.47655 | 1655 ft | 186 kts | 52° |
| 2026-04-17 17:31 | 52.47598 | 9.49380 | 2066 ft | 216 kts | 47° |
| 2026-04-17 17:32 | 52.48697 | 9.51177 | 2721 ft | 228 kts | 46° |
| 2026-04-17 17:32 | 52.49817 | 9.53016 | 3565 ft | 235 kts | 46° |
| 2026-04-17 17:32 | 52.50980 | 9.54965 | 4569 ft | 240 kts | 46° |
| 2026-04-17 17:32 | 52.52146 | 9.56945 | 5651 ft | 243 kts | 45° |
| 2026-04-17 17:33 | 52.53525 | 9.58548 | 6697 ft | 245 kts | 15° |
| 2026-04-17 17:33 | 52.55201 | 9.58980 | 7678 ft | 246 kts | 360° |
| 2026-04-17 17:33 | 52.56923 | 9.59051 | 8715 ft | 249 kts | 357° |
| 2026-04-17 17:33 | 52.58656 | 9.58933 | 9759 ft | 250 kts | 346° |
| 2026-04-17 17:34 | 52.60258 | 9.57910 | 10743 ft | 247 kts | 320° |
| 2026-04-17 17:34 | 52.61365 | 9.55816 | 11720 ft | 243 kts | 293° |
| 2026-04-17 17:34 | 52.61806 | 9.53156 | 12737 ft | 242 kts | 276° |
| 2026-04-17 17:34 | 52.61973 | 9.50381 | 13789 ft | 245 kts | 274° |
| 2026-04-17 17:35 | 52.62096 | 9.47570 | 14735 ft | 249 kts | 274° |
| 2026-04-17 17:35 | 52.62224 | 9.44714 | 15673 ft | 252 kts | 274° |
| 2026-04-17 17:35 | 52.62334 | 9.41806 | 16624 ft | 256 kts | 270° |
| 2026-04-17 17:35 | 52.62120 | 9.38885 | 17577 ft | 260 kts | 255° |
| 2026-04-17 17:36 | 52.61490 | 9.35978 | 18142 ft | 281 kts | 247° |
| 2026-04-17 17:36 | 52.60596 | 9.32971 | 18493 ft | 304 kts | 244° |
| 2026-04-17 17:36 | 52.59537 | 9.29838 | 18796 ft | 322 kts | 241° |
| 2026-04-17 17:36 | 52.58362 | 9.26642 | 19280 ft | 330 kts | 240° |
| 2026-04-17 17:37 | 52.57125 | 9.23422 | 19885 ft | 335 kts | 239° |
| 2026-04-17 17:37 | 52.55863 | 9.20192 | 20526 ft | 338 kts | 239° |
| 2026-04-17 17:37 | 52.54587 | 9.16933 | 21172 ft | 340 kts | 240° |
| 2026-04-17 17:37 | 52.53491 | 9.13488 | 21807 ft | 341 kts | 250° |
| 2026-04-17 17:38 | 52.52852 | 9.09737 | 22435 ft | 343 kts | 260° |
| 2026-04-17 17:38 | 52.52510 | 9.05846 | 23076 ft | 345 kts | 265° |
| 2026-04-17 17:38 | 52.52322 | 9.01905 | 23699 ft | 348 kts | 267° |
| 2026-04-17 17:38 | 52.52216 | 8.97931 | 24212 ft | 350 kts | 269° |
| 2026-04-17 17:39 | 52.52142 | 8.93927 | 24700 ft | 352 kts | 269° |
| 2026-04-17 17:39 | 52.52072 | 8.89894 | 25164 ft | 355 kts | 269° |
| 2026-04-17 17:39 | 52.51992 | 8.85837 | 25600 ft | 357 kts | 269° |
| 2026-04-17 17:39 | 52.51899 | 8.81749 | 26062 ft | 359 kts | 269° |
| 2026-04-17 17:40 | 52.51794 | 8.77638 | 26480 ft | 362 kts | 268° |
| 2026-04-17 17:40 | 52.51680 | 8.73501 | 26879 ft | 364 kts | 268° |
| 2026-04-17 17:40 | 52.51560 | 8.69335 | 27277 ft | 366 kts | 268° |
| 2026-04-17 17:40 | 52.51436 | 8.65142 | 27663 ft | 368 kts | 268° |
| 2026-04-17 17:41 | 52.51311 | 8.60934 | 28028 ft | 370 kts | 268° |
| 2026-04-17 17:41 | 52.51183 | 8.56697 | 28377 ft | 373 kts | 268° |
| 2026-04-17 17:41 | 52.51053 | 8.52437 | 28720 ft | 375 kts | 268° |
| 2026-04-17 17:41 | 52.50924 | 8.48215 | 29047 ft | 376 kts | 268° |
| 2026-04-17 17:42 | 52.50789 | 8.43870 | 29448 ft | 376 kts | 268° |
| 2026-04-17 17:42 | 52.50657 | 8.39650 | 29894 ft | 375 kts | 268° |
| 2026-04-17 17:42 | 52.50520 | 8.35329 | 30332 ft | 374 kts | 268° |
| 2026-04-17 17:42 | 52.50385 | 8.31129 | 30712 ft | 373 kts | 268° |
| 2026-04-17 17:43 | 52.50247 | 8.26889 | 31073 ft | 372 kts | 268° |
| 2026-04-17 17:43 | 52.50109 | 8.22657 | 31446 ft | 371 kts | 268° |
| 2026-04-17 17:43 | 52.49969 | 8.18436 | 31828 ft | 370 kts | 268° |
| 2026-04-17 17:43 | 52.49828 | 8.14223 | 32124 ft | 369 kts | 269° |
| 2026-04-17 17:44 | 52.49686 | 8.10004 | 32176 ft | 371 kts | 268° |
| 2026-04-17 17:44 | 52.49396 | 8.01560 | 32168 ft | 370 kts | 268° |
| 2026-04-17 17:45 | 52.49100 | 7.93131 | 32176 ft | 369 kts | 268° |
| 2026-04-17 17:45 | 52.48799 | 7.84719 | 32178 ft | 369 kts | 268° |
| 2026-04-17 17:46 | 52.48492 | 7.76306 | 32174 ft | 369 kts | 268° |
| 2026-04-17 17:46 | 52.48179 | 7.67895 | 32178 ft | 370 kts | 268° |
| 2026-04-17 17:47 | 52.47860 | 7.59473 | 32177 ft | 370 kts | 268° |
| 2026-04-17 17:47 | 52.47535 | 7.51061 | 32181 ft | 370 kts | 268° |
| 2026-04-17 17:48 | 52.47204 | 7.42644 | 32177 ft | 369 kts | 267° |
| 2026-04-17 17:48 | 52.46652 | 7.34268 | 32180 ft | 369 kts | 263° |
| 2026-04-17 17:49 | 52.45850 | 7.25953 | 32175 ft | 370 kts | 262° |
| 2026-04-17 17:49 | 52.44985 | 7.17635 | 32179 ft | 370 kts | 262° |
| 2026-04-17 17:50 | 52.44114 | 7.09326 | 32177 ft | 370 kts | 262° |
| 2026-04-17 17:50 | 52.43245 | 7.01010 | 32176 ft | 370 kts | 262° |
| 2026-04-17 17:51 | 52.42375 | 6.92694 | 32172 ft | 370 kts | 261° |
| 2026-04-17 17:51 | 52.41503 | 6.84412 | 32176 ft | 369 kts | 261° |
| 2026-04-17 17:52 | 52.40630 | 6.76187 | 32171 ft | 369 kts | 261° |
| 2026-04-17 17:52 | 52.39740 | 6.67854 | 32175 ft | 369 kts | 261° |
| 2026-04-17 17:53 | 52.38856 | 6.59636 | 32173 ft | 369 kts | 261° |
| 2026-04-17 17:53 | 52.37959 | 6.51363 | 32178 ft | 369 kts | 261° |
| 2026-04-17 17:54 | 52.37057 | 6.43084 | 32176 ft | 369 kts | 260° |
| 2026-04-17 17:54 | 52.36150 | 6.34833 | 32173 ft | 368 kts | 260° |
| 2026-04-17 17:55 | 52.35239 | 6.26592 | 32168 ft | 368 kts | 260° |
| 2026-04-17 17:55 | 52.34322 | 6.18354 | 32174 ft | 369 kts | 260° |
| 2026-04-17 17:56 | 52.33398 | 6.10103 | 32172 ft | 369 kts | 259° |
| 2026-04-17 17:56 | 52.32467 | 6.01850 | 32176 ft | 369 kts | 259° |
| 2026-04-17 17:57 | 52.31530 | 5.93599 | 32183 ft | 369 kts | 259° |
| 2026-04-17 17:57 | 52.30591 | 5.85380 | 32180 ft | 368 kts | 259° |
| 2026-04-17 17:58 | 52.29646 | 5.77169 | 32176 ft | 367 kts | 259° |
| 2026-04-17 17:58 | 52.28697 | 5.68970 | 32179 ft | 367 kts | 258° |
| 2026-04-17 17:59 | 52.27742 | 5.60771 | 32177 ft | 368 kts | 258° |
| 2026-04-17 17:59 | 52.26781 | 5.52578 | 32183 ft | 368 kts | 258° |
| 2026-04-17 18:00 | 52.25813 | 5.44374 | 32178 ft | 368 kts | 258° |
| 2026-04-17 18:00 | 52.24843 | 5.36199 | 32182 ft | 365 kts | 257° |
| 2026-04-17 18:01 | 52.23879 | 5.28132 | 32184 ft | 365 kts | 257° |
| 2026-04-17 18:01 | 52.22902 | 5.20011 | 32182 ft | 365 kts | 257° |
| 2026-04-17 18:02 | 52.21920 | 5.11897 | 32181 ft | 365 kts | 257° |
| 2026-04-17 18:02 | 52.20933 | 5.03786 | 32183 ft | 365 kts | 257° |
| 2026-04-17 18:03 | 52.19942 | 4.95685 | 32184 ft | 365 kts | 257° |
| 2026-04-17 18:03 | 52.18944 | 4.87584 | 32184 ft | 364 kts | 256° |
| 2026-04-17 18:04 | 52.17944 | 4.79515 | 32182 ft | 364 kts | 256° |
| 2026-04-17 18:04 | 52.16936 | 4.71429 | 32183 ft | 364 kts | 256° |
| 2026-04-17 18:05 | 52.15922 | 4.63345 | 32181 ft | 364 kts | 256° |
| 2026-04-17 18:05 | 52.14910 | 4.55321 | 32181 ft | 364 kts | 256° |
| 2026-04-17 18:06 | 52.14053 | 4.48559 | 32181 ft | 364 kts | 256° |
| 2026-04-17 18:06 | 52.12856 | 4.39175 | 32181 ft | 364 kts | 256° |
| 2026-04-17 18:07 | 52.11821 | 4.31110 | 32184 ft | 364 kts | 256° |
| 2026-04-17 18:07 | 52.10780 | 4.23050 | 32184 ft | 364 kts | 256° |
| 2026-04-17 18:08 | 52.09904 | 4.16298 | 32184 ft | 364 kts | 256° |
| 2026-04-17 18:08 | 52.08853 | 4.08243 | 32189 ft | 364 kts | 256° |
| 2026-04-17 18:09 | 52.07797 | 4.00193 | 32189 ft | 364 kts | 256° |
| 2026-04-17 18:09 | 52.06735 | 3.92146 | 32212 ft | 364 kts | 255° |
| 2026-04-17 18:10 | 52.05672 | 3.84127 | 32186 ft | 362 kts | 255° |
| 2026-04-17 18:10 | 52.04614 | 3.76198 | 32187 ft | 361 kts | 255° |
| 2026-04-17 18:11 | 52.03544 | 3.68225 | 32181 ft | 361 kts | 255° |
| 2026-04-17 18:11 | 52.02468 | 3.60252 | 32181 ft | 361 kts | 255° |
| 2026-04-17 18:12 | 52.01387 | 3.52282 | 32184 ft | 361 kts | 255° |
| 2026-04-17 18:12 | 52.00302 | 3.44323 | 32184 ft | 361 kts | 255° |
| 2026-04-17 18:13 | 51.99211 | 3.36370 | 32182 ft | 361 kts | 255° |
| 2026-04-17 18:13 | 51.98115 | 3.28419 | 32187 ft | 361 kts | 255° |
| 2026-04-17 18:14 | 51.97017 | 3.20469 | 32185 ft | 361 kts | 255° |
| 2026-04-17 18:14 | 51.95980 | 3.12489 | 32176 ft | 362 kts | 255° |
| 2026-04-17 18:15 | 51.94963 | 3.04510 | 32181 ft | 362 kts | 255° |
| 2026-04-17 18:15 | 51.93934 | 2.96534 | 32181 ft | 361 kts | 255° |
| 2026-04-17 18:16 | 51.92892 | 2.88565 | 32178 ft | 361 kts | 255° |
| 2026-04-17 18:16 | 51.91782 | 2.80640 | 32175 ft | 360 kts | 252° |
| 2026-04-17 18:17 | 51.90381 | 2.72863 | 32173 ft | 359 kts | 250° |